sensor_id;sensor_type;location;lat;lon;timestamp;temperature;humidity
8633;DHT22;4354;49.832;10.746;2024-03-22T00:01:11;4.10;37.80
8633;DHT22;4354;49.832;10.746;2024-03-22T00:03:37;4.10;34.80
8633;DHT22;4354;49.832;10.746;2024-03-22T00:06:03;4.10;42.90
8633;DHT22;4354;49.832;10.746;2024-03-22T00:08:29;4.10;39.00
8633;DHT22;4354;49.832;10.746;2024-03-22T00:10:54;4.00;35.00
8633;DHT22;4354;49.832;10.746;2024-03-22T00:13:20;4.00;38.20
8633;DHT22;4354;49.832;10.746;2024-03-22T00:15:46;3.80;27.50
8633;DHT22;4354;49.832;10.746;2024-03-22T00:18:11;3.70;40.70
8633;DHT22;4354;49.832;10.746;2024-03-22T00:20:37;3.80;54.80
8633;DHT22;4354;49.832;10.746;2024-03-22T00:23:03;3.80;58.70
8633;DHT22;4354;49.832;10.746;2024-03-22T00:25:30;3.70;51.50
8633;DHT22;4354;49.832;10.746;2024-03-22T00:27:56;3.60;47.10
8633;DHT22;4354;49.832;10.746;2024-03-22T00:30:22;3.50;49.50
8633;DHT22;4354;49.832;10.746;2024-03-22T00:32:48;3.50;64.30
8633;DHT22;4354;49.832;10.746;2024-03-22T00:35:13;3.50;70.00
8633;DHT22;4354;49.832;10.746;2024-03-22T00:37:39;3.50;70.60
8633;DHT22;4354;49.832;10.746;2024-03-22T00:40:05;3.50;62.10
8633;DHT22;4354;49.832;10.746;2024-03-22T00:42:31;3.40;56.60
8633;DHT22;4354;49.832;10.746;2024-03-22T00:44:57;3.40;60.20
8633;DHT22;4354;49.832;10.746;2024-03-22T00:47:23;3.40;69.40
8633;DHT22;4354;49.832;10.746;2024-03-22T00:49:49;3.40;81.80
8633;DHT22;4354;49.832;10.746;2024-03-22T00:52:15;3.40;80.30
8633;DHT22;4354;49.832;10.746;2024-03-22T00:54:41;3.50;84.30
8633;DHT22;4354;49.832;10.746;2024-03-22T00:57:07;3.50;83.20
8633;DHT22;4354;49.832;10.746;2024-03-22T00:59:33;3.50;79.80
8633;DHT22;4354;49.832;10.746;2024-03-22T01:01:58;3.50;84.80
8633;DHT22;4354;49.832;10.746;2024-03-22T01:04:24;3.50;85.70
8633;DHT22;4354;49.832;10.746;2024-03-22T01:06:50;3.50;76.00
8633;DHT22;4354;49.832;10.746;2024-03-22T01:09:16;3.50;76.80
8633;DHT22;4354;49.832;10.746;2024-03-22T01:11:41;3.50;75.60
8633;DHT22;4354;49.832;10.746;2024-03-22T01:14:07;3.50;67.10
8633;DHT22;4354;49.832;10.746;2024-03-22T01:16:33;3.40;66.60
8633;DHT22;4354;49.832;10.746;2024-03-22T01:18:59;3.40;67.90
8633;DHT22;4354;49.832;10.746;2024-03-22T01:21:24;3.40;65.30
8633;DHT22;4354;49.832;10.746;2024-03-22T01:23:54;3.40;65.00
8633;DHT22;4354;49.832;10.746;2024-03-22T01:26:19;3.40;66.30
8633;DHT22;4354;49.832;10.746;2024-03-22T01:28:46;3.30;52.60
8633;DHT22;4354;49.832;10.746;2024-03-22T01:31:13;3.30;56.50
8633;DHT22;4354;49.832;10.746;2024-03-22T01:33:38;3.20;61.30
8633;DHT22;4354;49.832;10.746;2024-03-22T01:36:04;3.10;53.20
8633;DHT22;4354;49.832;10.746;2024-03-22T01:38:31;3.10;53.50
8633;DHT22;4354;49.832;10.746;2024-03-22T01:40:57;3.00;53.30
8633;DHT22;4354;49.832;10.746;2024-03-22T01:43:23;2.90;54.90
8633;DHT22;4354;49.832;10.746;2024-03-22T01:45:48;2.80;58.40
8633;DHT22;4354;49.832;10.746;2024-03-22T01:48:15;2.80;65.30
8633;DHT22;4354;49.832;10.746;2024-03-22T01:50:41;2.80;75.70
8633;DHT22;4354;49.832;10.746;2024-03-22T01:53:07;2.80;72.60
8633;DHT22;4354;49.832;10.746;2024-03-22T01:55:33;2.70;68.00
8633;DHT22;4354;49.832;10.746;2024-03-22T01:57:58;2.70;69.90
8633;DHT22;4354;49.832;10.746;2024-03-22T02:00:24;2.60;70.10
8633;DHT22;4354;49.832;10.746;2024-03-22T02:02:50;2.50;68.10
8633;DHT22;4354;49.832;10.746;2024-03-22T02:05:17;2.50;71.60
8633;DHT22;4354;49.832;10.746;2024-03-22T02:07:47;2.50;81.40
8633;DHT22;4354;49.832;10.746;2024-03-22T02:10:13;2.50;77.20
8633;DHT22;4354;49.832;10.746;2024-03-22T02:12:40;2.50;70.00
8633;DHT22;4354;49.832;10.746;2024-03-22T02:15:06;2.40;68.90
8633;DHT22;4354;49.832;10.746;2024-03-22T02:17:32;2.30;64.10
8633;DHT22;4354;49.832;10.746;2024-03-22T02:19:59;2.10;65.70
8633;DHT22;4354;49.832;10.746;2024-03-22T02:22:26;2.10;72.40
8633;DHT22;4354;49.832;10.746;2024-03-22T02:24:52;2.10;79.80
8633;DHT22;4354;49.832;10.746;2024-03-22T02:27:18;2.10;84.00
8633;DHT22;4354;49.832;10.746;2024-03-22T02:29:44;1.90;88.30
8633;DHT22;4354;49.832;10.746;2024-03-22T02:32:10;2.00;87.70
8633;DHT22;4354;49.832;10.746;2024-03-22T02:34:36;2.00;92.30
8633;DHT22;4354;49.832;10.746;2024-03-22T02:37:02;1.90;76.60
8633;DHT22;4354;49.832;10.746;2024-03-22T02:39:28;1.90;77.40
8633;DHT22;4354;49.832;10.746;2024-03-22T02:41:54;1.80;77.40
8633;DHT22;4354;49.832;10.746;2024-03-22T02:44:20;1.90;92.20
8633;DHT22;4354;49.832;10.746;2024-03-22T02:46:46;1.80;86.70
8633;DHT22;4354;49.832;10.746;2024-03-22T02:49:12;1.70;87.20
8633;DHT22;4354;49.832;10.746;2024-03-22T02:51:38;1.80;93.80
8633;DHT22;4354;49.832;10.746;2024-03-22T02:54:04;1.80;88.20
8633;DHT22;4354;49.832;10.746;2024-03-22T02:56:30;1.70;91.20
8633;DHT22;4354;49.832;10.746;2024-03-22T02:58:56;1.70;92.90
8633;DHT22;4354;49.832;10.746;2024-03-22T03:01:22;1.70;92.30
8633;DHT22;4354;49.832;10.746;2024-03-22T03:06:14;1.70;93.70
8633;DHT22;4354;49.832;10.746;2024-03-22T03:08:40;1.70;92.30
8633;DHT22;4354;49.832;10.746;2024-03-22T03:11:06;1.60;91.30
8633;DHT22;4354;49.832;10.746;2024-03-22T03:13:32;1.70;93.30
8633;DHT22;4354;49.832;10.746;2024-03-22T03:15:58;1.70;96.70
8633;DHT22;4354;49.832;10.746;2024-03-22T03:18:24;1.70;97.90
8633;DHT22;4354;49.832;10.746;2024-03-22T03:20:49;1.70;96.20
8633;DHT22;4354;49.832;10.746;2024-03-22T03:23:15;1.70;94.50
8633;DHT22;4354;49.832;10.746;2024-03-22T03:25:41;1.60;93.00
8633;DHT22;4354;49.832;10.746;2024-03-22T03:28:07;1.60;95.70
8633;DHT22;4354;49.832;10.746;2024-03-22T03:30:36;1.60;96.50
8633;DHT22;4354;49.832;10.746;2024-03-22T03:33:02;1.60;94.60
8633;DHT22;4354;49.832;10.746;2024-03-22T03:35:27;1.60;96.30
8633;DHT22;4354;49.832;10.746;2024-03-22T03:37:55;1.60;93.40
8633;DHT22;4354;49.832;10.746;2024-03-22T03:40:21;1.50;90.90
8633;DHT22;4354;49.832;10.746;2024-03-22T03:42:50;1.40;86.90
8633;DHT22;4354;49.832;10.746;2024-03-22T03:45:16;1.40;89.00
8633;DHT22;4354;49.832;10.746;2024-03-22T03:47:42;1.30;90.20
8633;DHT22;4354;49.832;10.746;2024-03-22T03:50:08;1.40;93.70
8633;DHT22;4354;49.832;10.746;2024-03-22T03:52:35;1.40;95.50
8633;DHT22;4354;49.832;10.746;2024-03-22T03:55:01;1.50;97.70
8633;DHT22;4354;49.832;10.746;2024-03-22T03:57:26;1.50;97.30
8633;DHT22;4354;49.832;10.746;2024-03-22T03:59:52;1.50;96.80
8633;DHT22;4354;49.832;10.746;2024-03-22T04:02:18;1.50;93.90
8633;DHT22;4354;49.832;10.746;2024-03-22T04:04:43;1.40;91.80
8633;DHT22;4354;49.832;10.746;2024-03-22T04:07:09;1.40;92.70
8633;DHT22;4354;49.832;10.746;2024-03-22T04:09:35;1.40;95.60
8633;DHT22;4354;49.832;10.746;2024-03-22T04:12:01;1.40;92.60
8633;DHT22;4354;49.832;10.746;2024-03-22T04:14:26;1.40;93.40
8633;DHT22;4354;49.832;10.746;2024-03-22T04:16:52;1.40;90.20
8633;DHT22;4354;49.832;10.746;2024-03-22T04:19:20;1.30;85.00
8633;DHT22;4354;49.832;10.746;2024-03-22T04:21:48;1.20;86.20
8633;DHT22;4354;49.832;10.746;2024-03-22T04:24:14;1.20;90.20
8633;DHT22;4354;49.832;10.746;2024-03-22T04:26:39;1.10;90.20
8633;DHT22;4354;49.832;10.746;2024-03-22T04:29:05;1.10;90.30
8633;DHT22;4354;49.832;10.746;2024-03-22T04:31:31;1.10;92.00
8633;DHT22;4354;49.832;10.746;2024-03-22T04:33:57;1.10;94.00
8633;DHT22;4354;49.832;10.746;2024-03-22T04:36:22;1.00;93.60
8633;DHT22;4354;49.832;10.746;2024-03-22T04:38:48;1.10;97.20
8633;DHT22;4354;49.832;10.746;2024-03-22T04:41:14;1.10;99.90
8633;DHT22;4354;49.832;10.746;2024-03-22T04:43:40;1.20;99.90
8633;DHT22;4354;49.832;10.746;2024-03-22T04:46:06;1.30;99.90
8633;DHT22;4354;49.832;10.746;2024-03-22T04:48:32;1.30;99.90
8633;DHT22;4354;49.832;10.746;2024-03-22T04:50:57;1.40;99.90
8633;DHT22;4354;49.832;10.746;2024-03-22T04:53:23;1.30;95.70
8633;DHT22;4354;49.832;10.746;2024-03-22T04:55:50;1.20;92.80
8633;DHT22;4354;49.832;10.746;2024-03-22T04:58:18;1.10;92.30
8633;DHT22;4354;49.832;10.746;2024-03-22T05:00:49;1.00;92.90
8633;DHT22;4354;49.832;10.746;2024-03-22T05:03:16;0.90;94.30
8633;DHT22;4354;49.832;10.746;2024-03-22T05:05:42;0.80;92.70
8633;DHT22;4354;49.832;10.746;2024-03-22T05:08:08;0.80;93.30
8633;DHT22;4354;49.832;10.746;2024-03-22T05:10:35;0.80;94.90
8633;DHT22;4354;49.832;10.746;2024-03-22T05:13:01;0.80;96.10
8633;DHT22;4354;49.832;10.746;2024-03-22T05:15:27;0.80;98.30
8633;DHT22;4354;49.832;10.746;2024-03-22T05:17:54;0.90;99.90
8633;DHT22;4354;49.832;10.746;2024-03-22T05:20:20;1.00;99.90
8633;DHT22;4354;49.832;10.746;2024-03-22T05:22:47;1.00;99.90
8633;DHT22;4354;49.832;10.746;2024-03-22T05:25:13;1.00;99.90
8633;DHT22;4354;49.832;10.746;2024-03-22T05:27:41;1.10;99.90
8633;DHT22;4354;49.832;10.746;2024-03-22T05:30:08;1.00;99.90
8633;DHT22;4354;49.832;10.746;2024-03-22T05:32:34;1.00;99.90
8633;DHT22;4354;49.832;10.746;2024-03-22T05:35:00;1.10;99.90
8633;DHT22;4354;49.832;10.746;2024-03-22T05:37:26;1.10;99.90
8633;DHT22;4354;49.832;10.746;2024-03-22T05:39:52;1.10;99.90
8633;DHT22;4354;49.832;10.746;2024-03-22T05:42:18;1.10;99.80
8633;DHT22;4354;49.832;10.746;2024-03-22T05:44:44;1.10;99.20
8633;DHT22;4354;49.832;10.746;2024-03-22T05:47:10;1.10;97.50
8633;DHT22;4354;49.832;10.746;2024-03-22T05:49:36;1.10;96.30
8633;DHT22;4354;49.832;10.746;2024-03-22T05:52:02;1.10;96.60
8633;DHT22;4354;49.832;10.746;2024-03-22T05:54:28;1.10;98.20
8633;DHT22;4354;49.832;10.746;2024-03-22T05:56:55;1.10;99.20
8633;DHT22;4354;49.832;10.746;2024-03-22T05:59:21;1.20;99.90
8633;DHT22;4354;49.832;10.746;2024-03-22T06:01:46;1.30;99.90
8633;DHT22;4354;49.832;10.746;2024-03-22T06:04:12;1.50;99.90
8633;DHT22;4354;49.832;10.746;2024-03-22T06:06:38;1.70;99.90
8633;DHT22;4354;49.832;10.746;2024-03-22T06:09:04;2.10;99.90
8633;DHT22;4354;49.832;10.746;2024-03-22T06:11:34;2.30;99.90
8633;DHT22;4354;49.832;10.746;2024-03-22T06:14:00;2.60;99.90
8633;DHT22;4354;49.832;10.746;2024-03-22T06:16:26;2.70;99.90
8633;DHT22;4354;49.832;10.746;2024-03-22T06:18:52;2.80;92.50
8633;DHT22;4354;49.832;10.746;2024-03-22T06:21:18;2.90;69.50
8633;DHT22;4354;49.832;10.746;2024-03-22T06:23:51;3.00;42.10
8633;DHT22;4354;49.832;10.746;2024-03-22T06:26:17;3.00;1.00
8633;DHT22;4354;49.832;10.746;2024-03-22T06:28:44;3.10;21.20
8633;DHT22;4354;49.832;10.746;2024-03-22T06:31:09;3.30;1.00
8633;DHT22;4354;49.832;10.746;2024-03-22T06:33:36;3.40;1.00
8633;DHT22;4354;49.832;10.746;2024-03-22T06:36:02;3.50;1.00
8633;DHT22;4354;49.832;10.746;2024-03-22T06:38:29;3.60;1.00
8633;DHT22;4354;49.832;10.746;2024-03-22T06:40:55;3.60;1.00
8633;DHT22;4354;49.832;10.746;2024-03-22T06:43:20;3.70;1.00
8633;DHT22;4354;49.832;10.746;2024-03-22T06:45:46;3.70;1.00
8633;DHT22;4354;49.832;10.746;2024-03-22T06:48:12;3.80;1.00
8633;DHT22;4354;49.832;10.746;2024-03-22T06:50:41;3.80;1.00
8633;DHT22;4354;49.832;10.746;2024-03-22T06:53:07;3.80;1.00
8633;DHT22;4354;49.832;10.746;2024-03-22T06:55:33;3.90;1.00
8633;DHT22;4354;49.832;10.746;2024-03-22T06:57:58;4.00;1.00
8633;DHT22;4354;49.832;10.746;2024-03-22T07:00:24;4.00;1.00
8633;DHT22;4354;49.832;10.746;2024-03-22T07:02:50;4.10;1.00
8633;DHT22;4354;49.832;10.746;2024-03-22T07:05:16;4.30;1.00
8633;DHT22;4354;49.832;10.746;2024-03-22T07:07:41;4.30;1.00
8633;DHT22;4354;49.832;10.746;2024-03-22T07:10:07;4.40;1.00
8633;DHT22;4354;49.832;10.746;2024-03-22T07:12:34;4.60;1.00
8633;DHT22;4354;49.832;10.746;2024-03-22T07:15:00;4.80;1.00
8633;DHT22;4354;49.832;10.746;2024-03-22T07:17:27;4.80;1.00
8633;DHT22;4354;49.832;10.746;2024-03-22T07:19:53;4.80;1.00
8633;DHT22;4354;49.832;10.746;2024-03-22T07:22:20;4.90;1.00
8633;DHT22;4354;49.832;10.746;2024-03-22T07:24:46;5.10;1.00
8633;DHT22;4354;49.832;10.746;2024-03-22T07:27:16;5.30;1.00
8633;DHT22;4354;49.832;10.746;2024-03-22T07:29:43;5.40;1.00
8633;DHT22;4354;49.832;10.746;2024-03-22T07:32:09;5.50;99.90
8633;DHT22;4354;49.832;10.746;2024-03-22T07:34:36;5.60;1.00
8633;DHT22;4354;49.832;10.746;2024-03-22T07:37:02;5.80;1.00
8633;DHT22;4354;49.832;10.746;2024-03-22T07:39:29;6.00;99.90
8633;DHT22;4354;49.832;10.746;2024-03-22T07:41:55;6.30;1.00
8633;DHT22;4354;49.832;10.746;2024-03-22T07:44:21;6.50;1.00
8633;DHT22;4354;49.832;10.746;2024-03-22T07:46:49;6.80;99.90
8633;DHT22;4354;49.832;10.746;2024-03-22T07:49:15;7.60;1.00
8633;DHT22;4354;49.832;10.746;2024-03-22T07:51:41;8.90;99.90
8633;DHT22;4354;49.832;10.746;2024-03-22T07:54:07;8.80;99.90
8633;DHT22;4354;49.832;10.746;2024-03-22T07:56:33;9.00;99.90
8633;DHT22;4354;49.832;10.746;2024-03-22T07:58:59;9.50;77.80
8633;DHT22;4354;49.832;10.746;2024-03-22T08:01:25;9.60;54.40
8633;DHT22;4354;49.832;10.746;2024-03-22T08:03:51;10.00;1.00
8633;DHT22;4354;49.832;10.746;2024-03-22T08:06:17;11.00;1.00
8633;DHT22;4354;49.832;10.746;2024-03-22T08:08:43;12.30;1.00
8633;DHT22;4354;49.832;10.746;2024-03-22T08:11:09;12.90;1.00
8633;DHT22;4354;49.832;10.746;2024-03-22T08:13:35;14.00;1.00
8633;DHT22;4354;49.832;10.746;2024-03-22T08:16:01;14.80;99.90
8633;DHT22;4354;49.832;10.746;2024-03-22T08:18:27;16.20;99.90
8633;DHT22;4354;49.832;10.746;2024-03-22T08:20:53;17.40;99.90
8633;DHT22;4354;49.832;10.746;2024-03-22T08:23:19;18.10;99.90
8633;DHT22;4354;49.832;10.746;2024-03-22T08:25:46;19.30;99.90
8633;DHT22;4354;49.832;10.746;2024-03-22T08:28:12;20.10;99.90
8633;DHT22;4354;49.832;10.746;2024-03-22T08:30:41;21.10;99.90
8633;DHT22;4354;49.832;10.746;2024-03-22T08:33:08;22.30;99.90
8633;DHT22;4354;49.832;10.746;2024-03-22T08:35:34;21.80;99.90
8633;DHT22;4354;49.832;10.746;2024-03-22T08:38:00;22.90;99.90
8633;DHT22;4354;49.832;10.746;2024-03-22T08:40:26;23.20;1.00
8633;DHT22;4354;49.832;10.746;2024-03-22T08:42:52;23.50;1.00
8633;DHT22;4354;49.832;10.746;2024-03-22T08:45:18;23.90;99.90
8633;DHT22;4354;49.832;10.746;2024-03-22T08:47:44;25.30;99.90
8633;DHT22;4354;49.832;10.746;2024-03-22T08:50:13;26.20;99.90
8633;DHT22;4354;49.832;10.746;2024-03-22T08:52:38;26.00;99.90
8633;DHT22;4354;49.832;10.746;2024-03-22T08:55:04;25.80;99.90
8633;DHT22;4354;49.832;10.746;2024-03-22T08:57:33;25.40;99.90
8633;DHT22;4354;49.832;10.746;2024-03-22T08:59:59;23.90;99.90
8633;DHT22;4354;49.832;10.746;2024-03-22T09:02:25;22.90;99.90
8633;DHT22;4354;49.832;10.746;2024-03-22T09:04:51;20.90;99.90
8633;DHT22;4354;49.832;10.746;2024-03-22T09:07:18;20.00;99.90
8633;DHT22;4354;49.832;10.746;2024-03-22T09:09:44;19.10;99.90
8633;DHT22;4354;49.832;10.746;2024-03-22T09:12:10;18.40;99.90
8633;DHT22;4354;49.832;10.746;2024-03-22T09:14:36;17.70;99.90
8633;DHT22;4354;49.832;10.746;2024-03-22T09:17:01;17.20;99.90
8633;DHT22;4354;49.832;10.746;2024-03-22T09:19:27;17.10;99.90
8633;DHT22;4354;49.832;10.746;2024-03-22T09:21:53;17.00;99.90
8633;DHT22;4354;49.832;10.746;2024-03-22T09:24:19;16.80;99.90
8633;DHT22;4354;49.832;10.746;2024-03-22T09:26:45;16.70;99.90
8633;DHT22;4354;49.832;10.746;2024-03-22T09:29:13;17.20;99.90
8633;DHT22;4354;49.832;10.746;2024-03-22T09:31:39;17.50;99.90
8633;DHT22;4354;49.832;10.746;2024-03-22T09:34:04;17.50;99.90
8633;DHT22;4354;49.832;10.746;2024-03-22T09:36:31;17.60;99.90
8633;DHT22;4354;49.832;10.746;2024-03-22T09:39:01;17.30;99.90
8633;DHT22;4354;49.832;10.746;2024-03-22T09:41:27;17.20;99.90
8633;DHT22;4354;49.832;10.746;2024-03-22T09:43:57;16.90;99.90
8633;DHT22;4354;49.832;10.746;2024-03-22T09:46:24;16.70;99.90
8633;DHT22;4354;49.832;10.746;2024-03-22T09:48:52;16.30;99.90
8633;DHT22;4354;49.832;10.746;2024-03-22T09:51:19;16.20;99.90
8633;DHT22;4354;49.832;10.746;2024-03-22T09:53:48;16.10;99.90
8633;DHT22;4354;49.832;10.746;2024-03-22T09:56:14;16.30;99.90
8633;DHT22;4354;49.832;10.746;2024-03-22T09:58:41;16.60;99.90
8633;DHT22;4354;49.832;10.746;2024-03-22T10:01:08;16.60;99.90
8633;DHT22;4354;49.832;10.746;2024-03-22T10:03:33;17.00;99.90
8633;DHT22;4354;49.832;10.746;2024-03-22T10:06:00;17.40;99.90
8633;DHT22;4354;49.832;10.746;2024-03-22T10:08:26;18.10;99.90
8633;DHT22;4354;49.832;10.746;2024-03-22T10:10:52;19.70;99.90
8633;DHT22;4354;49.832;10.746;2024-03-22T10:13:18;21.90;99.90
8633;DHT22;4354;49.832;10.746;2024-03-22T10:15:43;23.60;99.90
8633;DHT22;4354;49.832;10.746;2024-03-22T10:18:10;24.10;99.90
8633;DHT22;4354;49.832;10.746;2024-03-22T10:20:36;25.00;99.90
8633;DHT22;4354;49.832;10.746;2024-03-22T10:23:03;25.50;99.90
8633;DHT22;4354;49.832;10.746;2024-03-22T10:25:29;25.70;99.90
8633;DHT22;4354;49.832;10.746;2024-03-22T10:27:56;24.90;99.90
8633;DHT22;4354;49.832;10.746;2024-03-22T10:30:23;24.80;99.90
8633;DHT22;4354;49.832;10.746;2024-03-22T10:32:49;24.30;99.90
8633;DHT22;4354;49.832;10.746;2024-03-22T10:35:16;23.30;99.90
8633;DHT22;4354;49.832;10.746;2024-03-22T10:37:42;22.70;99.90
8633;DHT22;4354;49.832;10.746;2024-03-22T10:40:08;22.30;99.90
8633;DHT22;4354;49.832;10.746;2024-03-22T10:42:41;22.00;99.90
8633;DHT22;4354;49.832;10.746;2024-03-22T10:45:09;21.90;99.90
8633;DHT22;4354;49.832;10.746;2024-03-22T10:47:36;22.30;99.90
8633;DHT22;4354;49.832;10.746;2024-03-22T10:50:07;23.20;99.90
8633;DHT22;4354;49.832;10.746;2024-03-22T10:52:57;23.10;99.90
8633;DHT22;4354;49.832;10.746;2024-03-22T10:55:30;23.10;99.90
8633;DHT22;4354;49.832;10.746;2024-03-22T10:57:58;22.60;99.90
8633;DHT22;4354;49.832;10.746;2024-03-22T11:00:34;22.60;99.90
8633;DHT22;4354;49.832;10.746;2024-03-22T11:03:04;22.40;99.90
8633;DHT22;4354;49.832;10.746;2024-03-22T11:05:30;22.10;99.90
8633;DHT22;4354;49.832;10.746;2024-03-22T11:08:04;22.10;99.90
8633;DHT22;4354;49.832;10.746;2024-03-22T11:10:33;22.00;99.90
8633;DHT22;4354;49.832;10.746;2024-03-22T11:13:06;21.60;99.90
8633;DHT22;4354;49.832;10.746;2024-03-22T11:15:33;22.30;99.90
8633;DHT22;4354;49.832;10.746;2024-03-22T11:17:59;22.50;99.90
8633;DHT22;4354;49.832;10.746;2024-03-22T11:20:27;22.70;99.90
8633;DHT22;4354;49.832;10.746;2024-03-22T11:22:53;23.30;99.90
8633;DHT22;4354;49.832;10.746;2024-03-22T11:25:19;24.00;99.90
8633;DHT22;4354;49.832;10.746;2024-03-22T11:27:48;24.00;99.90
8633;DHT22;4354;49.832;10.746;2024-03-22T11:30:15;23.90;98.70
8633;DHT22;4354;49.832;10.746;2024-03-22T11:32:41;24.00;96.80
8633;DHT22;4354;49.832;10.746;2024-03-22T11:35:12;23.90;99.30
8633;DHT22;4354;49.832;10.746;2024-03-22T11:37:41;24.00;98.50
8633;DHT22;4354;49.832;10.746;2024-03-22T11:40:11;24.10;96.60
8633;DHT22;4354;49.832;10.746;2024-03-22T11:42:39;23.80;96.50
8633;DHT22;4354;49.832;10.746;2024-03-22T11:45:08;23.30;97.30
8633;DHT22;4354;49.832;10.746;2024-03-22T11:47:35;22.90;97.50
8633;DHT22;4354;49.832;10.746;2024-03-22T11:50:01;22.80;95.70
8633;DHT22;4354;49.832;10.746;2024-03-22T11:52:28;23.20;97.50
8633;DHT22;4354;49.832;10.746;2024-03-22T11:54:55;22.70;96.80
8633;DHT22;4354;49.832;10.746;2024-03-22T11:57:22;23.00;99.20
8633;DHT22;4354;49.832;10.746;2024-03-22T11:59:48;23.20;96.70
8633;DHT22;4354;49.832;10.746;2024-03-22T12:02:14;23.30;95.70
8633;DHT22;4354;49.832;10.746;2024-03-22T12:04:50;23.50;96.00
8633;DHT22;4354;49.832;10.746;2024-03-22T12:07:17;23.10;94.30
8633;DHT22;4354;49.832;10.746;2024-03-22T12:09:46;23.10;96.50
8633;DHT22;4354;49.832;10.746;2024-03-22T12:12:13;22.80;94.40
8633;DHT22;4354;49.832;10.746;2024-03-22T12:14:39;22.90;95.30
8633;DHT22;4354;49.832;10.746;2024-03-22T12:17:08;23.00;95.90
8633;DHT22;4354;49.832;10.746;2024-03-22T12:19:34;23.00;94.90
8633;DHT22;4354;49.832;10.746;2024-03-22T12:22:00;22.70;93.50
8633;DHT22;4354;49.832;10.746;2024-03-22T12:24:26;22.40;92.90
8633;DHT22;4354;49.832;10.746;2024-03-22T12:26:55;22.10;95.40
8633;DHT22;4354;49.832;10.746;2024-03-22T12:29:21;21.50;94.50
8633;DHT22;4354;49.832;10.746;2024-03-22T12:31:47;21.30;95.70
8633;DHT22;4354;49.832;10.746;2024-03-22T12:34:13;21.10;95.90
8633;DHT22;4354;49.832;10.746;2024-03-22T12:36:39;20.90;95.50
8633;DHT22;4354;49.832;10.746;2024-03-22T12:39:05;20.30;96.40
8633;DHT22;4354;49.832;10.746;2024-03-22T12:41:32;19.80;98.80
8633;DHT22;4354;49.832;10.746;2024-03-22T12:43:59;19.60;98.30
8633;DHT22;4354;49.832;10.746;2024-03-22T12:46:25;19.90;99.90
8633;DHT22;4354;49.832;10.746;2024-03-22T12:48:51;19.80;99.90
8633;DHT22;4354;49.832;10.746;2024-03-22T12:51:17;20.00;96.70
8633;DHT22;4354;49.832;10.746;2024-03-22T12:53:43;20.00;98.10
8633;DHT22;4354;49.832;10.746;2024-03-22T12:56:09;19.90;99.90
8633;DHT22;4354;49.832;10.746;2024-03-22T12:58:34;19.70;98.10
8633;DHT22;4354;49.832;10.746;2024-03-22T13:01:00;19.70;98.70
8633;DHT22;4354;49.832;10.746;2024-03-22T13:03:28;19.40;99.70
8633;DHT22;4354;49.832;10.746;2024-03-22T13:05:54;19.30;99.90
8633;DHT22;4354;49.832;10.746;2024-03-22T13:08:20;19.20;99.00
8633;DHT22;4354;49.832;10.746;2024-03-22T13:10:46;19.20;99.30
8633;DHT22;4354;49.832;10.746;2024-03-22T13:13:13;19.20;99.00
8633;DHT22;4354;49.832;10.746;2024-03-22T13:15:41;19.20;99.90
8633;DHT22;4354;49.832;10.746;2024-03-22T13:18:07;19.20;99.90
8633;DHT22;4354;49.832;10.746;2024-03-22T13:20:37;19.20;99.90
8633;DHT22;4354;49.832;10.746;2024-03-22T13:23:04;19.50;99.90
8633;DHT22;4354;49.832;10.746;2024-03-22T13:25:30;19.60;99.90
8633;DHT22;4354;49.832;10.746;2024-03-22T13:27:55;19.80;98.30
8633;DHT22;4354;49.832;10.746;2024-03-22T13:30:21;19.80;98.20
8633;DHT22;4354;49.832;10.746;2024-03-22T13:32:47;20.00;99.00
8633;DHT22;4354;49.832;10.746;2024-03-22T13:35:13;20.00;96.00
8633;DHT22;4354;49.832;10.746;2024-03-22T13:37:41;20.20;97.70
8633;DHT22;4354;49.832;10.746;2024-03-22T13:40:07;20.30;96.90
8633;DHT22;4354;49.832;10.746;2024-03-22T13:42:33;20.40;96.80
8633;DHT22;4354;49.832;10.746;2024-03-22T13:44:59;20.40;96.20
8633;DHT22;4354;49.832;10.746;2024-03-22T13:47:26;19.80;95.60
8633;DHT22;4354;49.832;10.746;2024-03-22T13:49:53;20.00;97.90
8633;DHT22;4354;49.832;10.746;2024-03-22T13:52:22;19.80;96.40
8633;DHT22;4354;49.832;10.746;2024-03-22T13:54:48;19.70;95.00
8633;DHT22;4354;49.832;10.746;2024-03-22T13:57:15;19.60;97.50
8633;DHT22;4354;49.832;10.746;2024-03-22T13:59:41;19.60;94.90
8633;DHT22;4354;49.832;10.746;2024-03-22T14:02:07;19.50;97.10
8633;DHT22;4354;49.832;10.746;2024-03-22T14:04:35;19.40;99.70
8633;DHT22;4354;49.832;10.746;2024-03-22T14:07:02;19.20;97.60
8633;DHT22;4354;49.832;10.746;2024-03-22T14:09:33;19.00;98.90
8633;DHT22;4354;49.832;10.746;2024-03-22T14:12:00;18.90;98.70
8633;DHT22;4354;49.832;10.746;2024-03-22T14:14:29;18.90;97.60
8633;DHT22;4354;49.832;10.746;2024-03-22T14:16:55;18.80;99.30
8633;DHT22;4354;49.832;10.746;2024-03-22T14:19:21;18.70;98.30
8633;DHT22;4354;49.832;10.746;2024-03-22T14:21:47;18.50;97.60
8633;DHT22;4354;49.832;10.746;2024-03-22T14:24:13;18.40;97.20
8633;DHT22;4354;49.832;10.746;2024-03-22T14:26:40;18.20;98.40
8633;DHT22;4354;49.832;10.746;2024-03-22T14:29:12;18.10;99.90
8633;DHT22;4354;49.832;10.746;2024-03-22T14:31:38;17.90;98.70
8633;DHT22;4354;49.832;10.746;2024-03-22T14:34:06;17.90;99.90
8633;DHT22;4354;49.832;10.746;2024-03-22T14:36:32;17.70;99.90
8633;DHT22;4354;49.832;10.746;2024-03-22T14:38:59;17.60;99.90
8633;DHT22;4354;49.832;10.746;2024-03-22T14:41:24;17.50;99.90
8633;DHT22;4354;49.832;10.746;2024-03-22T14:43:50;17.40;99.90
8633;DHT22;4354;49.832;10.746;2024-03-22T14:46:16;17.30;99.90
8633;DHT22;4354;49.832;10.746;2024-03-22T14:48:45;17.10;99.90
8633;DHT22;4354;49.832;10.746;2024-03-22T14:51:11;16.90;99.90
8633;DHT22;4354;49.832;10.746;2024-03-22T14:53:37;16.80;99.90
8633;DHT22;4354;49.832;10.746;2024-03-22T14:56:03;16.70;99.90
8633;DHT22;4354;49.832;10.746;2024-03-22T14:58:34;16.70;99.90
8633;DHT22;4354;49.832;10.746;2024-03-22T15:01:02;16.70;99.90
8633;DHT22;4354;49.832;10.746;2024-03-22T15:03:28;16.60;99.90
8633;DHT22;4354;49.832;10.746;2024-03-22T15:05:55;16.60;99.90
8633;DHT22;4354;49.832;10.746;2024-03-22T15:08:22;16.70;99.90
8633;DHT22;4354;49.832;10.746;2024-03-22T15:10:48;16.80;99.90
8633;DHT22;4354;49.832;10.746;2024-03-22T15:13:15;16.60;99.90
8633;DHT22;4354;49.832;10.746;2024-03-22T15:15:42;16.90;99.90
8633;DHT22;4354;49.832;10.746;2024-03-22T15:18:09;16.80;99.90
8633;DHT22;4354;49.832;10.746;2024-03-22T15:20:36;16.80;99.90
8633;DHT22;4354;49.832;10.746;2024-03-22T15:23:02;16.80;99.90
8633;DHT22;4354;49.832;10.746;2024-03-22T15:25:29;16.70;99.90
8633;DHT22;4354;49.832;10.746;2024-03-22T15:27:55;16.50;99.90
8633;DHT22;4354;49.832;10.746;2024-03-22T15:30:21;16.50;99.90
8633;DHT22;4354;49.832;10.746;2024-03-22T15:32:47;16.40;99.90
8633;DHT22;4354;49.832;10.746;2024-03-22T15:35:13;16.30;99.90
8633;DHT22;4354;49.832;10.746;2024-03-22T15:37:39;16.20;99.90
8633;DHT22;4354;49.832;10.746;2024-03-22T15:40:07;16.10;99.90
8633;DHT22;4354;49.832;10.746;2024-03-22T15:42:33;16.10;99.90
8633;DHT22;4354;49.832;10.746;2024-03-22T15:44:59;16.00;99.90
8633;DHT22;4354;49.832;10.746;2024-03-22T15:47:29;16.00;99.90
8633;DHT22;4354;49.832;10.746;2024-03-22T15:49:56;16.00;99.90
8633;DHT22;4354;49.832;10.746;2024-03-22T15:52:22;16.00;99.90